TFM - Tactical Decision Aid
ID: Runway Winds: CIG/VIS Threshold:

KSLC - Salt Lake City Intl, UT, US

Updated at: 1131 UTC 25 Jun 2019
Latest TAF at: 1120 UTC 25 Jun 2019

TAF Board

Time1054Z 25/12Z 25/13Z 25/14Z 25/15Z 25/16Z 25/17Z 25/18Z 25/19Z 25/20Z 25/21Z 25/22Z 25/23Z 26/00Z>>
Type OBS PRVL PRVL PRVL PRVL PRVL PRVL PRVL PRVL PRVL PRVL PRVL PRVL PRVL
VIS 10 >6 >6 >6 >6 >6 >6 >6 >6 >6 >6 >6 >6 >6
CIG -- -- -- -- -- -- -- 200 200 200 200 200 200 150
Cover SCT SCT SCT SCT SCT SCT SCT BKN BKN BKN BKN BKN BKN BKN
FltCat VFR VFR VFR VFR VFR VFR VFR VFR VFR VFR VFR VFR VFR VFR
WX -- -- -- -- -- -- -- -- -- -- -- -- -- --
WDir 140 160 160 160 160 160 160 180 180 180 180 180 180 300
WSpd 8 8 8 8 8 8 8 15 15 15 15 15 15 11
WGst -- -- -- -- -- -- -- 23 23 23 23 23 23 18

TDA Impact Legend

  None Marginal Slight Moderate High
Visibility (sm) >5 3≤X≤5 1≤X<3 0.5≤X<1 <0.5
Ceiling (100 ft) >30 10≤X≤30 4≤X<10 2≤X<4 <2
Wind Speed (kt) <15 15≤X<25 25≤X<30 ≥30
Wind Gust (kt) <15 15≤X<25 25≤X<35 ≥35
Weather No Wx Reported VCTS -TS,-FZRA TS,FZRA +TS,+FZRA
TAF
KSLC 251120Z 2512/2618 16008KT P6SM SCT200
  FM251800 18015G23KT P6SM FEW100 BKN200
  FM260000 30011G18KT P6SM SCT090 BKN150
  FM260500 15006KT P6SM SCT150


METAR
KSLC 251054Z 14008KT 10SM FEW130 SCT220 19/05 A2985 RMK AO2 SLP054 T01940050
KSLC 250954Z 15006KT 10SM SCT220 19/05 A2985 RMK AO2 SLP056 T01890050
KSLC 250854Z 15008KT 10SM FEW220 19/05 A2985 RMK AO2 SLP055 T01890050 58005

Radar Display
Forecast Discussion